Time;durP1;ratioP1;P1;durP2;ratioP2;P2;SDS_P1;SDS_P2;PMS_P1;PMS_P2;Temp;Humidity;BMP_temperature;BMP_pressure;BME280_temperature;BME280_humidity;BME280_pressure;Samples;Min_cycle;Max_cycle;Signal;HPM_P1;HPM_P2
2022/06/07 00:01:08;;;;;;;14.75;9.25;;;12.10;99.90;;;;;;4808436;29;20129;-67
2022/06/07 00:03:33;;;;;;;11.23;9.60;;;12.10;99.90;;;;;;4793353;29;20185;-66
2022/06/07 00:05:59;;;;;;;13.60;9.25;;;12.20;99.90;;;;;;4792682;29;20568;-65
2022/06/07 00:08:25;;;;;;;13.88;10.18;;;12.20;99.90;;;;;;4809261;29;20134;-67
2022/06/07 00:10:51;;;;;;;12.50;9.75;;;12.20;99.90;;;;;;4808017;29;20058;-67
2022/06/07 00:13:17;;;;;;;16.08;11.50;;;12.20;99.90;;;;;;4808741;29;20043;-66
2022/06/07 00:15:43;;;;;;;14.55;11.05;;;12.20;99.90;;;;;;4808436;29;20440;-65
2022/06/07 00:18:11;;;;;;;15.40;10.32;;;12.20;99.90;;;;;;4792272;29;20089;-66
2022/06/07 00:20:38;;;;;;;15.65;11.05;;;12.20;99.90;;;;;;4777658;29;20584;-68
2022/06/07 00:23:06;;;;;;;17.90;12.30;;;12.20;99.90;;;;;;4791763;29;20400;-66
2022/06/07 00:25:32;;;;;;;12.95;10.82;;;12.20;99.90;;;;;;4808736;29;20138;-67
2022/06/07 00:27:58;;;;;;;16.13;12.10;;;12.20;99.90;;;;;;4808472;29;20135;-67
2022/06/07 00:30:24;;;;;;;17.88;11.65;;;12.20;99.90;;;;;;4792862;29;20050;-68
2022/06/07 00:32:50;;;;;;;17.00;12.95;;;12.20;99.90;;;;;;4807553;29;20099;-68
2022/06/07 00:35:15;;;;;;;21.08;12.73;;;12.20;99.90;;;;;;4808976;29;20058;-65
2022/06/07 00:37:41;;;;;;;19.30;13.30;;;12.20;99.90;;;;;;4807782;29;20137;-67
2022/06/07 00:40:07;;;;;;;16.67;12.15;;;12.20;99.90;;;;;;4791158;29;20138;-65
2022/06/07 00:42:34;;;;;;;17.23;11.80;;;12.20;99.90;;;;;;4808431;29;20071;-65
2022/06/07 00:44:59;;;;;;;14.90;11.32;;;12.20;99.90;;;;;;4792407;29;20061;-67
2022/06/07 00:47:29;;;;;;;16.55;11.60;;;12.30;99.90;;;;;;4807661;29;20039;-65
2022/06/07 00:49:59;;;;;;;17.55;11.50;;;12.20;99.90;;;;;;4808307;29;20061;-67
2022/06/07 00:52:30;;;;;;;13.13;10.48;;;12.30;99.90;;;;;;4792043;29;20162;-65
2022/06/07 00:54:56;;;;;;;14.82;11.35;;;12.30;99.90;;;;;;4807402;29;20054;-67
2022/06/07 00:57:23;;;;;;;17.55;11.02;;;12.30;99.90;;;;;;4807879;29;20477;-66
2022/06/07 00:59:51;;;;;;;15.25;10.93;;;12.30;99.90;;;;;;4808008;29;20058;-66
2022/06/07 01:02:17;;;;;;;13.90;10.73;;;12.30;99.90;;;;;;4806690;29;20138;-65
2022/06/07 01:04:43;;;;;;;12.68;11.00;;;12.30;99.90;;;;;;4807900;29;20078;-66
2022/06/07 01:12:37;;;;;;;12.95;11.25;;;12.30;99.90;;;;;;4807840;29;20195;-65
2022/06/07 01:15:04;;;;;;;13.88;12.20;;;12.30;99.90;;;;;;4807597;29;20189;-66
2022/06/07 01:17:30;;;;;;;16.08;11.90;;;12.30;99.90;;;;;;4807732;29;20058;-66
2022/06/07 01:19:55;;;;;;;14.90;12.27;;;12.30;99.90;;;;;;4807692;29;20507;-67
2022/06/07 01:22:22;;;;;;;16.15;13.05;;;12.30;99.90;;;;;;4791762;29;20049;-68
2022/06/07 01:24:48;;;;;;;14.13;12.38;;;12.40;99.90;;;;;;4805535;29;20077;-66
2022/06/07 01:27:13;;;;;;;17.92;13.15;;;12.40;99.90;;;;;;4805773;29;20047;-65
2022/06/07 01:29:41;;;;;;;15.25;13.18;;;12.40;99.90;;;;;;4791456;29;20065;-67
2022/06/07 01:32:08;;;;;;;16.40;12.95;;;12.40;99.90;;;;;;4807297;29;20487;-66
2022/06/07 01:34:34;;;;;;;16.67;13.25;;;12.40;99.90;;;;;;4790779;29;20059;-66
2022/06/07 01:37:01;;;;;;;16.30;12.20;;;12.40;99.90;;;;;;4807558;29;20050;-68
2022/06/07 01:42:12;;;;;;;15.45;12.60;;;12.40;99.90;;;;;;4791095;29;20055;-67
2022/06/07 01:44:41;;;;;;;15.55;11.60;;;12.40;99.90;;;;;;4806128;29;20144;-67
2022/06/07 01:47:10;;;;;;;14.73;11.75;;;12.40;99.90;;;;;;4807010;29;20084;-66
2022/06/07 01:49:36;;;;;;;13.82;11.38;;;12.50;99.90;;;;;;4806577;29;20050;-66
2022/06/07 01:52:03;;;;;;;14.82;10.23;;;12.50;99.90;;;;;;4807516;29;20109;-66
2022/06/07 01:54:29;;;;;;;14.25;12.15;;;12.50;99.90;;;;;;4806052;29;20054;-66
2022/06/07 01:56:54;;;;;;;12.68;11.00;;;12.50;99.90;;;;;;4807425;29;20055;-66
2022/06/07 01:59:20;;;;;;;13.48;10.98;;;12.40;99.90;;;;;;4807537;29;20050;-66
2022/06/07 02:01:47;;;;;;;12.93;10.48;;;12.50;99.90;;;;;;4806571;29;20564;-66
2022/06/07 02:04:13;;;;;;;14.07;10.60;;;12.50;99.90;;;;;;4790538;29;20058;-66
2022/06/07 02:06:39;;;;;;;12.27;10.32;;;12.50;99.90;;;;;;4805979;29;20050;-67
2022/06/07 02:09:06;;;;;;;15.88;10.93;;;12.60;99.90;;;;;;4790615;29;20054;-67
2022/06/07 02:11:33;;;;;;;12.02;10.30;;;12.50;99.90;;;;;;4806601;29;20043;-66
2022/06/07 02:13:58;;;;;;;14.60;11.20;;;12.50;99.90;;;;;;4790612;29;20059;-67
2022/06/07 02:16:24;;;;;;;14.77;11.40;;;12.50;99.90;;;;;;4806134;29;20062;-67
2022/06/07 02:18:50;;;;;;;14.57;10.55;;;12.50;99.90;;;;;;4807227;29;20141;-66
2022/06/07 02:21:17;;;;;;;13.50;10.07;;;12.50;99.90;;;;;;4806814;29;20071;-68
2022/06/07 02:23:43;;;;;;;15.30;10.85;;;12.50;99.90;;;;;;4789287;29;20381;-65
2022/06/07 02:26:18;;;;;;;15.45;11.50;;;12.50;99.90;;;;;;4790953;29;20100;-67
2022/06/07 02:28:48;;;;;;;14.88;10.68;;;12.60;99.90;;;;;;4806396;29;20057;-66
2022/06/07 02:31:15;;;;;;;15.38;11.60;;;12.50;99.90;;;;;;4806374;29;20448;-65
2022/06/07 02:33:41;;;;;;;13.98;10.68;;;12.60;99.90;;;;;;4806576;29;20059;-67
2022/06/07 02:36:08;;;;;;;13.02;10.80;;;12.50;99.90;;;;;;4805766;29;20066;-68
2022/06/07 02:38:34;;;;;;;14.48;10.68;;;12.50;99.90;;;;;;4806389;29;20050;-67
2022/06/07 02:41:02;;;;;;;14.82;10.65;;;12.60;99.90;;;;;;4789822;29;20042;-66
2022/06/07 02:43:28;;;;;;;13.82;10.55;;;12.30;99.90;;;;;;4790569;29;20062;-67
2022/06/07 02:45:53;;;;;;;17.45;11.48;;;12.50;99.90;;;;;;4804909;29;20133;-67
2022/06/07 02:48:19;;;;;;;13.52;10.18;;;12.60;99.90;;;;;;4806197;29;20150;-68
2022/06/07 02:50:45;;;;;;;14.25;10.40;;;12.50;99.90;;;;;;4790148;29;20051;-65
2022/06/07 02:53:10;;;;;;;13.90;10.73;;;12.60;99.90;;;;;;4789365;29;20062;-68
2022/06/07 02:55:36;;;;;;;14.98;10.40;;;12.60;99.90;;;;;;4806541;29;20108;-66
2022/06/07 02:58:02;;;;;;;13.48;10.15;;;12.50;99.90;;;;;;4790100;29;20050;-67
2022/06/07 03:00:28;;;;;;;14.88;10.38;;;12.50;99.90;;;;;;4805575;29;20448;-67
2022/06/07 03:02:53;;;;;;;15.55;11.27;;;12.50;99.90;;;;;;4805488;29;20055;-69
2022/06/07 03:05:19;;;;;;;14.02;9.68;;;12.60;99.90;;;;;;4806230;29;20051;-67
2022/06/07 03:07:44;;;;;;;12.77;10.30;;;12.60;99.90;;;;;;4804747;29;20043;-67
2022/06/07 03:10:11;;;;;;;13.73;9.85;;;12.60;99.90;;;;;;4789754;29;20515;-68
2022/06/07 03:12:38;;;;;;;13.95;10.27;;;12.50;99.90;;;;;;4805454;29;20050;-67
2022/06/07 03:15:04;;;;;;;14.55;10.05;;;12.50;99.90;;;;;;4801077;29;20510;-67
2022/06/07 03:17:30;;;;;;;15.82;11.18;;;12.60;99.90;;;;;;4803829;29;20062;-68
2022/06/07 03:19:56;;;;;;;14.10;10.38;;;12.60;99.90;;;;;;4789557;29;20053;-68
2022/06/07 03:22:22;;;;;;;13.70;9.93;;;12.60;99.90;;;;;;4805776;29;20078;-66
2022/06/07 03:24:49;;;;;;;12.00;9.77;;;12.60;99.90;;;;;;4788975;29;20059;-67
2022/06/07 03:27:15;;;;;;;14.05;10.27;;;12.60;99.90;;;;;;4805946;29;20043;-66
2022/06/07 03:29:41;;;;;;;14.68;10.18;;;12.60;99.90;;;;;;4805979;29;20129;-66
2022/06/07 03:32:07;;;;;;;14.05;10.50;;;12.60;99.90;;;;;;4787915;29;20464;-65
2022/06/07 03:34:34;;;;;;;14.77;10.20;;;12.50;99.90;;;;;;4806306;29;20058;-67
2022/06/07 03:37:00;;;;;;;14.95;10.30;;;12.60;99.90;;;;;;4805103;29;20433;-65
2022/06/07 03:39:26;;;;;;;15.85;10.50;;;12.50;99.90;;;;;;4806010;29;20146;-67
2022/06/07 03:41:52;;;;;;;14.07;10.85;;;12.50;99.90;;;;;;4789066;29;20047;-67
2022/06/07 03:44:18;;;;;;;24.65;10.65;;;12.60;99.90;;;;;;4806023;29;20058;-66
2022/06/07 03:46:45;;;;;;;13.02;9.88;;;12.60;99.90;;;;;;4804940;29;20484;-67
2022/06/07 03:49:12;;;;;;;15.27;10.50;;;12.50;99.90;;;;;;4789257;29;20117;-66
2022/06/07 03:51:37;;;;;;;13.00;10.27;;;12.60;99.90;;;;;;4788848;29;20139;-67
2022/06/07 03:54:04;;;;;;;15.00;10.55;;;12.50;99.90;;;;;;4805784;29;20050;-69
2022/06/07 03:56:30;;;;;;;14.85;10.88;;;12.50;99.90;;;;;;4805538;29;20059;-66
2022/06/07 03:58:57;;;;;;;14.32;10.65;;;12.50;99.90;;;;;;4789005;29;20059;-67
2022/06/07 04:01:24;;;;;;;15.43;10.68;;;12.60;99.90;;;;;;4805203;29;20042;-67
2022/06/07 04:03:53;;;;;;;12.95;10.50;;;12.60;99.90;;;;;;4789567;29;20112;-69
2022/06/07 04:06:20;;;;;;;14.50;10.30;;;12.60;99.90;;;;;;4805218;29;20138;-67
2022/06/07 04:08:46;;;;;;;17.42;11.07;;;12.60;99.90;;;;;;4775019;29;20054;-67
2022/06/07 04:11:13;;;;;;;14.02;10.65;;;12.60;99.90;;;;;;4805087;29;20386;-66
2022/06/07 04:13:39;;;;;;;14.18;9.65;;;12.60;99.90;;;;;;4804819;29;20507;-67
2022/06/07 04:16:10;;;;;;;16.63;10.38;;;13.50;99.90;;;;;;4804441;29;20066;-67
2022/06/07 04:18:36;;;;;;;16.70;9.73;;;12.60;99.90;;;;;;4804963;29;20086;-66
2022/06/07 04:21:02;;;;;;;13.80;9.88;;;12.60;99.90;;;;;;4805366;29;20097;-66
2022/06/07 04:23:28;;;;;;;15.50;10.50;;;12.70;99.90;;;;;;4789874;29;20358;-67
2022/06/07 04:25:54;;;;;;;13.35;10.23;;;12.60;99.90;;;;;;4805048;29;20508;-66
2022/06/07 04:28:19;;;;;;;13.43;9.77;;;12.60;99.90;;;;;;4787921;29;20043;-67
2022/06/07 04:30:47;;;;;;;14.45;10.25;;;12.60;99.90;;;;;;4805258;29;20103;-66
2022/06/07 04:33:17;;;;;;;16.23;10.55;;;12.70;99.90;;;;;;4788790;29;20111;-66
2022/06/07 04:35:44;;;;;;;16.60;10.68;;;12.70;99.90;;;;;;4805445;29;20130;-65
2022/06/07 04:38:10;;;;;;;14.88;10.32;;;12.70;99.90;;;;;;4791790;29;20480;-68
2022/06/07 04:40:39;;;;;;;13.98;10.45;;;12.70;99.90;;;;;;4792305;29;20130;-66
2022/06/07 04:43:05;;;;;;;13.43;10.40;;;12.70;99.90;;;;;;4770093;30;20051;-69
2022/06/07 04:45:31;;;;;;;15.23;10.35;;;12.70;99.90;;;;;;4794252;29;20054;-67
2022/06/07 04:47:57;;;;;;;16.25;10.43;;;12.70;99.90;;;;;;4808083;29;20061;-67
2022/06/07 04:50:23;;;;;;;14.15;10.27;;;12.70;99.90;;;;;;4808328;29;20055;-68
2022/06/07 04:52:49;;;;;;;15.25;10.73;;;12.70;99.90;;;;;;4808078;29;20055;-66
2022/06/07 04:55:16;;;;;;;14.40;10.20;;;12.70;99.90;;;;;;4808630;29;20046;-67
2022/06/07 04:57:41;;;;;;;13.43;10.27;;;12.60;99.90;;;;;;4790846;29;20050;-66
2022/06/07 05:00:08;;;;;;;18.30;11.10;;;12.70;99.90;;;;;;4807458;29;20035;-67
2022/06/07 05:02:37;;;;;;;14.50;11.40;;;12.80;99.90;;;;;;4790359;29;20077;-66
2022/06/07 05:05:04;;;;;;;15.48;10.70;;;12.80;99.90;;;;;;4806695;29;20081;-67
2022/06/07 05:07:30;;;;;;;15.18;10.65;;;12.80;99.90;;;;;;4808210;29;20057;-65
2022/06/07 05:09:55;;;;;;;14.13;9.98;;;12.80;99.90;;;;;;4791778;29;20133;-67
2022/06/07 05:12:21;;;;;;;16.17;11.02;;;12.80;99.90;;;;;;4791397;29;20096;-67
2022/06/07 05:14:47;;;;;;;13.85;11.13;;;12.90;99.90;;;;;;4808089;29;20386;-67
2022/06/07 05:17:13;;;;;;;14.60;10.80;;;12.90;99.90;;;;;;4807274;29;20119;-67
2022/06/07 05:19:39;;;;;;;16.15;11.95;;;12.90;99.90;;;;;;4790705;29;20046;-67
2022/06/07 05:22:05;;;;;;;15.20;10.25;;;12.90;99.90;;;;;;4800544;29;20125;-66
2022/06/07 05:24:30;;;;;;;15.38;11.35;;;12.90;99.90;;;;;;4788455;29;20115;-66
2022/06/07 05:26:59;;;;;;;17.88;11.45;;;13.00;99.90;;;;;;4805601;29;20050;-66
2022/06/07 05:29:30;;;;;;;14.18;10.93;;;12.90;99.90;;;;;;4791053;29;20381;-67
2022/06/07 05:31:56;;;;;;;15.07;10.85;;;12.90;99.90;;;;;;4785087;29;20476;-69
2022/06/07 05:34:21;;;;;;;15.20;11.23;;;12.90;99.90;;;;;;4798827;29;20078;-67
2022/06/07 05:36:48;;;;;;;16.80;10.68;;;12.90;99.90;;;;;;4799877;29;20062;-68
2022/06/07 05:39:21;;;;;;;13.55;10.20;;;12.90;99.90;;;;;;4782005;29;20352;-69
2022/06/07 05:41:47;;;;;;;16.08;9.95;;;13.00;99.90;;;;;;4801704;29;20063;-68
2022/06/07 05:44:13;;;;;;;14.43;10.80;;;13.00;99.90;;;;;;4787362;29;20096;-68
2022/06/07 05:46:39;;;;;;;16.02;10.77;;;13.00;99.90;;;;;;4785493;29;20477;-68
2022/06/07 05:49:05;;;;;;;14.63;10.95;;;13.00;99.90;;;;;;4803565;29;20050;-67
2022/06/07 05:51:30;;;;;;;14.43;10.32;;;13.00;99.90;;;;;;4801825;29;20070;-67
2022/06/07 05:53:56;;;;;;;15.88;10.80;;;13.00;99.90;;;;;;4807407;29;20055;-67
2022/06/07 05:56:22;;;;;;;14.07;10.90;;;13.00;99.90;;;;;;4805182;29;20067;-68
2022/06/07 05:58:48;;;;;;;13.70;10.43;;;13.00;99.90;;;;;;4805340;29;20051;-67
2022/06/07 06:01:15;;;;;;;16.23;10.95;;;13.00;99.90;;;;;;4788286;29;20433;-69
2022/06/07 06:03:41;;;;;;;16.00;11.23;;;13.00;99.90;;;;;;4804826;29;20373;-67
2022/06/07 06:06:11;;;;;;;17.10;11.63;;;13.00;99.90;;;;;;4801009;29;20050;-67
2022/06/07 06:11:24;;;;;;;16.10;10.88;;;13.00;99.90;;;;;;4806229;29;20054;-67
2022/06/07 06:13:50;;;;;;;17.02;10.98;;;13.00;99.90;;;;;;4786969;29;20489;-66
2022/06/07 06:16:19;;;;;;;16.50;11.32;;;13.00;99.90;;;;;;4774725;29;20086;-66
2022/06/07 06:19:02;;;;;;;16.90;12.10;;;13.00;99.90;;;;;;4804445;29;20053;-67
2022/06/07 06:21:33;;;;;;;12.85;10.85;;;13.00;99.90;;;;;;4792389;29;20049;-66
2022/06/07 06:24:00;;;;;;;14.80;11.50;;;13.00;99.90;;;;;;4790773;29;20043;-66
2022/06/07 06:26:26;;;;;;;17.25;11.75;;;13.00;99.90;;;;;;4788196;29;20074;-66
2022/06/07 06:28:53;;;;;;;20.13;13.30;;;13.00;99.90;;;;;;4805688;29;20102;-67
2022/06/07 06:31:19;;;;;;;19.45;11.43;;;13.00;99.90;;;;;;4803568;29;20050;-66
2022/06/07 06:33:48;;;;;;;17.55;12.10;;;13.00;99.90;;;;;;4804457;29;20087;-66
2022/06/07 06:36:16;;;;;;;16.88;12.85;;;12.90;99.90;;;;;;4802889;29;20088;-66
2022/06/07 06:38:43;;;;;;;16.90;11.88;;;12.90;99.90;;;;;;4802143;29;20043;-67
2022/06/07 06:41:22;;;;;;;18.27;12.65;;;12.80;99.90;;;;;;4801686;29;20487;-66
2022/06/07 06:43:49;;;;;;;17.05;12.30;;;12.80;99.90;;;;;;4804653;29;20057;-66
2022/06/07 06:46:26;;;;;;;15.85;11.77;;;12.70;99.90;;;;;;4805370;29;20055;-65
2022/06/07 06:48:53;;;;;;;14.90;11.52;;;12.70;99.90;;;;;;4806488;29;20054;-66
2022/06/07 06:51:21;;;;;;;19.83;10.93;;;12.60;99.90;;;;;;4804812;29;20043;-67
2022/06/07 06:53:47;;;;;;;16.27;11.02;;;12.60;99.90;;;;;;4799837;29;20055;-67
2022/06/07 06:56:15;;;;;;;14.50;10.63;;;12.60;99.90;;;;;;4785861;29;20095;-66
2022/06/07 06:58:41;;;;;;;14.98;10.55;;;12.60;99.90;;;;;;4803112;29;20151;-66
2022/06/07 07:01:10;;;;;;;16.92;11.20;;;12.60;99.90;;;;;;4786483;29;20587;-67
2022/06/07 07:03:37;;;;;;;17.40;10.40;;;12.60;99.90;;;;;;4801076;29;20073;-67
2022/06/07 07:06:05;;;;;;;16.48;11.60;;;12.80;99.90;;;;;;4780746;29;20050;-66
2022/06/07 07:08:31;;;;;;;16.42;10.68;;;12.70;99.90;;;;;;4788212;29;20358;-65
2022/06/07 07:11:07;;;;;;;16.20;11.45;;;12.70;99.90;;;;;;4805180;29;20077;-66
2022/06/07 07:13:34;;;;;;;14.18;10.05;;;12.80;99.90;;;;;;4805456;29;20059;-64
2022/06/07 07:15:59;;;;;;;16.95;10.10;;;12.80;99.90;;;;;;4806038;29;20077;-64
2022/06/07 07:18:25;;;;;;;12.05;9.35;;;12.90;99.90;;;;;;4788807;29;20146;-64
2022/06/07 07:20:51;;;;;;;17.80;10.45;;;12.90;99.90;;;;;;4790121;29;20046;-66
2022/06/07 07:23:17;;;;;;;11.00;7.43;;;13.00;99.90;;;;;;4803797;29;20090;-64
2022/06/07 07:25:43;;;;;;;10.90;7.40;;;13.10;99.90;;;;;;4785735;29;20134;-65
2022/06/07 07:28:08;;;;;;;11.48;7.15;;;13.10;99.90;;;;;;4805794;29;20099;-64
2022/06/07 07:30:34;;;;;;;10.35;5.63;;;13.10;99.90;;;;;;4787557;29;20043;-65
2022/06/07 07:33:00;;;;;;;12.95;5.60;;;13.10;99.90;;;;;;4805308;29;20103;-65
2022/06/07 07:35:25;;;;;;;8.05;6.28;;;13.00;99.90;;;;;;4789070;29;20127;-65
2022/06/07 07:37:51;;;;;;;8.38;5.97;;;13.10;99.90;;;;;;4804647;29;20495;-65
2022/06/07 07:40:17;;;;;;;8.05;5.43;;;13.10;99.90;;;;;;4804505;29;20049;-65
2022/06/07 07:42:43;;;;;;;7.35;5.65;;;13.00;99.90;;;;;;4805593;29;20121;-66
2022/06/07 07:45:10;;;;;;;9.30;4.80;;;13.00;99.90;;;;;;4804737;29;20112;-65
2022/06/07 07:47:35;;;;;;;9.13;5.05;;;13.00;99.90;;;;;;4805414;29;20197;-66
2022/06/07 07:50:02;;;;;;;6.82;4.97;;;13.00;99.90;;;;;;4803484;29;20465;-65
2022/06/07 07:52:28;;;;;;;9.45;5.57;;;13.10;99.90;;;;;;4804706;29;20050;-65
2022/06/07 07:54:54;;;;;;;9.48;4.80;;;13.00;99.90;;;;;;4806052;29;20057;-64
2022/06/07 07:57:19;;;;;;;7.60;5.25;;;13.10;99.90;;;;;;4804539;29;20051;-65
2022/06/07 07:59:45;;;;;;;7.03;4.80;;;13.10;99.90;;;;;;4805651;29;20178;-66
2022/06/07 08:02:21;;;;;;;7.30;4.60;;;13.10;99.90;;;;;;4787937;29;20090;-65
2022/06/07 08:04:47;;;;;;;6.40;4.40;;;13.10;99.90;;;;;;4789694;29;20508;-65
2022/06/07 08:07:13;;;;;;;7.63;4.70;;;13.10;99.90;;;;;;4805579;29;20047;-66
2022/06/07 08:09:39;;;;;;;9.57;4.95;;;13.20;99.90;;;;;;4805531;29;20438;-65
2022/06/07 08:12:06;;;;;;;8.57;5.47;;;13.20;99.90;;;;;;4791268;29;20050;-65
2022/06/07 08:14:33;;;;;;;6.60;4.90;;;13.20;99.90;;;;;;4808083;29;20074;-65
2022/06/07 08:17:00;;;;;;;7.85;5.28;;;13.30;99.90;;;;;;4808543;29;20050;-65
2022/06/07 08:19:26;;;;;;;8.05;5.13;;;13.30;99.90;;;;;;4808028;29;20055;-66
2022/06/07 08:21:52;;;;;;;7.65;5.85;;;13.30;99.90;;;;;;4790469;29;20046;-67
2022/06/07 08:24:18;;;;;;;8.88;5.30;;;13.30;99.90;;;;;;4808866;29;20059;-67
2022/06/07 08:26:46;;;;;;;7.70;5.43;;;13.30;99.90;;;;;;4807840;29;20058;-65
2022/06/07 08:29:12;;;;;;;9.57;5.50;;;13.30;99.90;;;;;;4808791;29;20126;-66
2022/06/07 08:31:39;;;;;;;8.05;5.35;;;13.40;99.90;;;;;;4805191;29;20051;-65
2022/06/07 08:39:37;;;;;;;11.55;6.40;;;13.30;99.90;;;;;;4789497;29;20059;-67
2022/06/07 08:42:20;;;;;;;10.65;5.55;;;13.40;99.90;;;;;;4791467;29;20162;-65
2022/06/07 08:45:08;;;;;;;11.18;6.90;;;13.40;99.90;;;;;;4807322;29;20062;-65
2022/06/07 08:47:51;;;;;;;11.45;6.60;;;13.40;99.90;;;;;;4797817;29;20058;-64
2022/06/07 08:50:19;;;;;;;15.75;6.78;;;13.40;99.90;;;;;;4776605;29;20050;-65
2022/06/07 08:52:48;;;;;;;10.07;6.80;;;13.40;99.90;;;;;;4775273;29;20051;-66
2022/06/07 08:55:36;;;;;;;12.18;6.85;;;13.50;99.90;;;;;;4791915;29;20522;-64
2022/06/07 08:58:18;;;;;;;13.77;7.60;;;13.50;99.90;;;;;;4790697;29;20066;-64
2022/06/07 09:00:51;;;;;;;12.07;8.20;;;13.50;99.90;;;;;;4807871;29;20051;-66
2022/06/07 09:03:36;;;;;;;15.43;7.55;;;13.50;99.90;;;;;;4806478;29;20383;-65
2022/06/07 09:06:16;;;;;;;12.30;7.57;;;13.40;99.90;;;;;;4807816;29;20065;-65
2022/06/07 09:08:46;;;;;;;12.27;7.60;;;13.40;99.90;;;;;;4807369;29;20062;-64
2022/06/07 09:14:10;;;;;;;10.00;7.13;;;13.30;99.90;;;;;;4786607;29;20126;-65
2022/06/07 09:16:38;;;;;;;13.82;6.40;;;13.30;99.90;;;;;;4789422;29;20070;-65
2022/06/07 09:19:19;;;;;;;10.45;6.95;;;13.30;99.90;;;;;;4799820;29;20102;-66
2022/06/07 09:21:45;;;;;;;10.18;6.63;;;13.30;99.90;;;;;;4799900;29;20057;-66
2022/06/07 09:24:18;;;;;;;11.32;6.63;;;13.30;99.90;;;;;;4805427;29;20396;-66
2022/06/07 09:26:44;;;;;;;11.68;6.88;;;13.30;99.90;;;;;;4800640;29;20556;-66
2022/06/07 09:29:20;;;;;;;10.48;6.82;;;13.20;99.90;;;;;;4807603;29;20062;-65
2022/06/07 09:31:47;;;;;;;9.60;6.13;;;13.30;99.90;;;;;;4802662;29;20051;-64
2022/06/07 09:34:25;;;;;;;8.82;6.00;;;13.30;99.90;;;;;;4807219;29;20051;-65
2022/06/07 09:37:01;;;;;;;13.65;6.65;;;13.30;99.90;;;;;;4786900;29;20354;-65
2022/06/07 09:39:33;;;;;;;10.02;5.30;;;13.30;99.90;;;;;;4805374;29;20108;-65
2022/06/07 09:42:07;;;;;;;10.90;5.88;;;13.30;99.90;;;;;;4804418;29;20434;-65
2022/06/07 09:44:54;;;;;;;10.57;5.85;;;13.30;99.90;;;;;;4789136;29;20062;-64
2022/06/07 09:47:22;;;;;;;7.65;5.63;;;13.40;99.90;;;;;;4805384;29;20519;-65
2022/06/07 09:50:16;;;;;;;6.50;5.32;;;13.40;99.90;;;;;;4790636;29;20053;-65
2022/06/07 09:52:49;;;;;;;8.43;5.57;;;13.50;99.90;;;;;;4792293;29;20203;-65
2022/06/07 09:55:33;;;;;;;9.30;5.75;;;13.40;99.90;;;;;;4802159;29;20047;-65
2022/06/07 09:58:10;;;;;;;9.07;5.50;;;13.40;99.90;;;;;;4804087;29;20103;-65
2022/06/07 10:00:53;;;;;;;7.47;5.47;;;13.40;99.90;;;;;;4806868;29;20069;-65
2022/06/07 10:03:30;;;;;;;8.13;5.32;;;13.40;99.90;;;;;;4800608;29;20072;-66
2022/06/07 10:06:21;;;;;;;10.70;5.40;;;13.30;99.90;;;;;;4788348;29;20050;-64
2022/06/07 10:09:23;;;;;;;9.32;5.20;;;13.30;99.90;;;;;;4788484;29;20065;-66
2022/06/07 10:11:59;;;;;;;11.02;6.35;;;13.30;99.90;;;;;;4800056;29;20055;-66
2022/06/07 10:14:44;;;;;;;7.88;5.45;;;13.30;99.90;;;;;;4790954;29;20058;-66
2022/06/07 10:17:16;;;;;;;8.55;4.97;;;13.30;99.90;;;;;;4794729;29;20074;-66
2022/06/07 10:19:41;;;;;;;8.43;4.38;;;13.20;99.90;;;;;;4806038;29;20126;-66
2022/06/07 10:22:25;;;;;;;12.27;4.70;;;13.20;99.90;;;;;;4805227;29;20062;-64
2022/06/07 10:25:04;;;;;;;8.30;4.95;;;13.20;99.90;;;;;;4804789;29;20115;-65
2022/06/07 10:27:46;;;;;;;8.65;5.05;;;13.20;99.90;;;;;;4788893;29;20070;-64
2022/06/07 10:30:30;;;;;;;9.18;4.30;;;13.40;99.90;;;;;;4792249;29;20393;-67
2022/06/07 10:33:06;;;;;;;9.30;5.10;;;13.40;99.90;;;;;;4803869;29;20146;-67
2022/06/07 10:35:56;;;;;;;8.80;4.85;;;13.60;99.90;;;;;;4789422;29;20061;-67
2022/06/07 10:39:07;;;;;;;7.38;4.28;;;13.80;99.90;;;;;;4804396;29;20537;-66
2022/06/07 10:41:48;;;;;;;10.18;4.43;;;13.80;99.90;;;;;;4805606;29;20047;-65
2022/06/07 10:44:29;;;;;;;6.75;4.40;;;13.80;99.90;;;;;;4806835;29;20120;-66
2022/06/07 10:46:55;;;;;;;7.10;4.80;;;13.80;99.90;;;;;;4803959;29;20449;-67
2022/06/07 10:49:49;;;;;;;8.93;4.57;;;13.80;99.90;;;;;;4789701;29;20057;-65
2022/06/07 10:52:27;;;;;;;7.63;4.22;;;13.80;99.90;;;;;;4802891;29;20337;-67
2022/06/07 10:54:56;;;;;;;5.60;4.03;;;13.80;99.90;;;;;;4802527;29;20058;-66
2022/06/07 10:57:31;;;;;;;5.72;3.72;;;13.70;99.90;;;;;;4771451;29;20054;-68
2022/06/07 11:00:03;;;;;;;10.43;4.35;;;13.70;99.90;;;;;;4805601;29;20051;-66
2022/06/07 11:02:54;;;;;;;7.40;4.15;;;13.60;99.90;;;;;;4789077;29;20042;-68
2022/06/07 11:11:14;;;;;;;6.97;4.13;;;13.50;99.90;;;;;;4805822;29;20061;-65
2022/06/07 11:13:46;;;;;;;7.68;4.32;;;13.40;99.90;;;;;;4804624;29;20493;-67
2022/06/07 11:16:22;;;;;;;7.13;4.23;;;13.40;99.90;;;;;;4789480;29;20382;-66
2022/06/07 11:18:48;;;;;;;8.57;3.92;;;13.40;99.90;;;;;;4805942;29;20051;-66
2022/06/07 11:21:31;;;;;;;6.70;3.70;;;13.30;99.90;;;;;;4789437;29;20507;-66
2022/06/07 11:24:04;;;;;;;7.88;3.67;;;13.40;99.90;;;;;;4789813;29;20047;-65
2022/06/07 11:26:52;;;;;;;6.10;4.15;;;13.40;99.90;;;;;;4805988;29;20054;-66
2022/06/07 11:29:24;;;;;;;6.57;4.00;;;13.40;99.90;;;;;;4779860;29;20116;-68
2022/06/07 11:31:53;;;;;;;4.40;3.63;;;13.40;99.90;;;;;;4778602;29;20138;-66
2022/06/07 11:34:34;;;;;;;6.13;4.32;;;13.50;99.90;;;;;;4788758;29;20075;-65
2022/06/07 11:37:09;;;;;;;6.13;4.13;;;13.50;99.90;;;;;;4784414;29;20072;-65
2022/06/07 11:39:40;;;;;;;8.15;4.15;;;13.60;99.90;;;;;;4805606;29;20057;-66
2022/06/07 11:42:16;;;;;;;7.10;4.10;;;13.50;99.90;;;;;;4790260;29;20484;-66
2022/06/07 11:44:41;;;;;;;7.30;4.20;;;13.50;99.90;;;;;;4805890;29;20065;-67
2022/06/07 11:47:07;;;;;;;6.07;4.00;;;13.40;99.90;;;;;;4790245;29;20059;-66
2022/06/07 11:49:54;;;;;;;4.63;3.58;;;13.40;99.90;;;;;;4792672;29;20059;-66
2022/06/07 11:52:53;;;;;;;6.20;3.42;;;13.40;99.90;;;;;;4800095;29;20137;-66
2022/06/07 11:55:22;;;;;;;4.47;3.08;;;13.40;99.90;;;;;;4809145;29;20038;-65
2022/06/07 11:58:07;;;;;;;4.28;2.65;;;13.40;99.90;;;;;;4778129;29;20107;-66
2022/06/07 12:00:46;;;;;;;7.90;2.60;;;13.40;99.90;;;;;;4809536;29;20055;-67
2022/06/07 12:03:26;;;;;;;6.72;2.85;;;13.40;99.90;;;;;;4808892;29;20076;-65
2022/06/07 12:05:55;;;;;;;5.20;2.70;;;13.50;99.90;;;;;;4791953;29;20082;-67
2022/06/07 12:08:28;;;;;;;7.57;2.78;;;13.50;99.90;;;;;;4809243;29;20066;-66
2022/06/07 12:11:20;;;;;;;;;;;13.50;99.90;;;;;;4793103;29;20062;-66
2022/06/07 12:13:52;;;;;;;4.90;2.80;;;13.50;99.90;;;;;;4793131;29;19921;-65
2022/06/07 12:16:37;;;;;;;3.22;2.70;;;13.60;99.90;;;;;;4808437;29;20054;-66
2022/06/07 12:19:15;;;;;;;4.13;2.95;;;13.60;99.90;;;;;;4808701;29;20515;-66
2022/06/07 12:21:45;;;;;;;5.80;3.35;;;13.60;99.90;;;;;;4808895;29;20108;-66
2022/06/07 12:24:14;;;;;;;6.25;3.90;;;13.60;99.90;;;;;;4808885;29;20058;-66
2022/06/07 12:26:40;;;;;;;7.82;3.47;;;13.70;99.90;;;;;;4807889;29;20053;-67
2022/06/07 12:29:28;;;;;;;6.05;3.65;;;13.70;99.90;;;;;;4808634;29;20050;-67
2022/06/07 12:32:06;;;;;;;4.28;3.35;;;13.70;99.90;;;;;;4807969;29;20051;-66
2022/06/07 12:34:36;;;;;;;5.03;3.13;;;13.80;99.90;;;;;;4777490;29;20039;-68
2022/06/07 12:37:09;;;;;;;4.20;2.92;;;13.70;99.90;;;;;;4777419;29;20138;-67
2022/06/07 12:39:51;;;;;;;3.88;2.72;;;13.80;99.90;;;;;;4776590;29;20046;-66
2022/06/07 12:42:19;;;;;;;4.43;2.23;;;13.80;99.90;;;;;;4791992;29;20054;-67
2022/06/07 12:44:54;;;;;;;3.85;2.35;;;13.90;99.90;;;;;;4807733;29;20050;-67
2022/06/07 12:47:24;;;;;;;5.13;2.22;;;13.90;99.90;;;;;;4807113;29;20523;-67
2022/06/07 12:49:49;;;;;;;7.55;2.60;;;14.00;99.90;;;;;;4808619;29;20058;-67
2022/06/07 12:52:19;;;;;;;5.95;2.58;;;14.00;99.90;;;;;;4808259;29;20130;-66
2022/06/07 12:54:50;;;;;;;6.53;2.50;;;14.00;99.90;;;;;;4792194;29;20047;-67
2022/06/07 12:57:26;;;;;;;6.32;2.47;;;14.00;99.90;;;;;;4806825;29;20070;-67
2022/06/07 13:00:00;;;;;;;4.57;2.50;;;14.00;99.90;;;;;;4807646;29;20456;-67
2022/06/07 13:02:43;;;;;;;5.22;2.70;;;14.10;99.90;;;;;;4790910;29;20158;-67
2022/06/07 13:05:17;;;;;;;6.22;2.10;;;14.20;99.90;;;;;;4791970;29;20467;-67
2022/06/07 13:07:47;;;;;;;5.13;2.20;;;14.30;99.90;;;;;;4807792;29;20084;-67
2022/06/07 13:10:22;;;;;;;5.72;3.00;;;14.30;99.90;;;;;;4791768;29;20079;-67
2022/06/07 13:12:58;;;;;;;4.57;2.67;;;14.40;99.90;;;;;;4791702;29;20188;-68
2022/06/07 13:15:54;;;;;;;8.32;3.25;;;14.40;99.90;;;;;;4807797;29;20118;-66